createdAt,value
2022-11-15T00:00:36.606Z,6.50
2022-11-15T00:03:03.244Z,6.50
2022-11-15T00:05:29.929Z,7.70
2022-11-15T00:07:57.881Z,6.50
2022-11-15T00:10:24.475Z,7.50
2022-11-15T00:12:51.139Z,6.50
2022-11-15T00:15:17.768Z,6.50
2022-11-15T00:17:44.437Z,8.40
2022-11-15T00:20:12.502Z,6.50
2022-11-15T00:22:39.114Z,6.50
2022-11-15T00:25:06.000Z,6.50
2022-11-15T00:27:32.603Z,6.40
2022-11-15T00:29:59.364Z,6.40
2022-11-15T00:32:25.932Z,6.50
2022-11-15T00:34:52.616Z,6.40
2022-11-15T00:37:19.246Z,6.40
2022-11-15T00:39:45.931Z,6.30
2022-11-15T00:42:12.574Z,6.30
2022-11-15T00:44:39.191Z,6.20
2022-11-15T00:47:05.791Z,6.10
2022-11-15T00:49:32.383Z,6.00
2022-11-15T00:51:59.003Z,5.90
2022-11-15T00:54:25.659Z,5.90
2022-11-15T00:56:52.282Z,5.80
2022-11-15T00:59:18.911Z,5.80
2022-11-15T01:01:45.551Z,5.70
2022-11-15T01:04:12.201Z,5.70
2022-11-15T01:06:38.799Z,6.50
2022-11-15T01:09:05.378Z,5.50
2022-11-15T01:11:32.075Z,5.40
2022-11-15T01:13:58.727Z,5.30
2022-11-15T01:16:25.355Z,5.20
2022-11-15T01:18:51.943Z,5.20
2022-11-15T01:21:20.000Z,5.20
2022-11-15T01:23:46.656Z,5.10
2022-11-15T01:26:14.646Z,5.20
2022-11-15T01:28:42.294Z,5.20
2022-11-15T01:31:16.386Z,5.20
2022-11-15T01:33:43.082Z,5.00
2022-11-15T01:36:14.335Z,5.10
2022-11-15T01:38:41.016Z,5.10
2022-11-15T01:41:07.683Z,5.10
2022-11-15T01:43:36.203Z,5.10
2022-11-15T01:46:07.978Z,5.10
2022-11-15T01:48:35.218Z,5.00
2022-11-15T01:51:03.716Z,5.10
2022-11-15T01:53:31.301Z,5.10
2022-11-15T01:55:58.790Z,5.20
2022-11-15T01:58:25.720Z,5.30
2022-11-15T02:00:52.789Z,5.30
2022-11-15T02:03:19.993Z,5.30
2022-11-15T02:05:46.607Z,5.30
2022-11-15T02:08:20.911Z,5.30
2022-11-15T02:10:48.119Z,5.30
2022-11-15T02:13:18.364Z,5.40
2022-11-15T02:16:02.631Z,5.40
2022-11-15T02:18:34.016Z,5.40
2022-11-15T02:21:18.728Z,5.40
2022-11-15T02:24:17.871Z,5.40
2022-11-15T02:27:03.408Z,5.40
2022-11-15T02:29:59.392Z,5.30
2022-11-15T02:32:33.307Z,5.30
2022-11-15T02:35:18.371Z,5.50
2022-11-15T02:37:55.859Z,5.50
2022-11-15T02:40:44.940Z,5.50
2022-11-15T02:43:31.511Z,7.90
2022-11-15T02:46:02.916Z,5.60
2022-11-15T02:48:30.128Z,5.60
2022-11-15T02:50:56.999Z,5.70
2022-11-15T02:53:26.899Z,5.80
2022-11-15T02:55:54.297Z,5.80
2022-11-15T02:58:27.142Z,5.80
2022-11-15T03:01:04.036Z,5.80
2022-11-15T03:03:49.487Z,5.80
2022-11-15T03:06:19.353Z,5.70
2022-11-15T03:08:52.279Z,5.60
2022-11-15T03:11:20.844Z,5.60
2022-11-15T03:13:56.663Z,5.60
2022-11-15T03:16:29.516Z,5.50
2022-11-15T03:19:22.503Z,5.50
2022-11-15T03:21:50.564Z,5.50
2022-11-15T03:24:25.618Z,5.50
2022-11-15T03:26:55.227Z,5.50
2022-11-15T03:29:24.591Z,5.60
2022-11-15T03:31:55.844Z,5.70
2022-11-15T03:34:38.340Z,7.30
2022-11-15T03:37:05.867Z,5.70
2022-11-15T03:39:32.450Z,5.60
2022-11-15T03:42:10.447Z,7.00
2022-11-15T03:44:47.139Z,5.50
2022-11-15T03:47:16.164Z,5.60
2022-11-15T03:49:47.868Z,5.50
2022-11-15T03:52:17.811Z,5.50
2022-11-15T03:54:51.623Z,7.10
2022-11-15T03:57:18.328Z,5.40
2022-11-15T03:59:45.069Z,5.40
2022-11-15T04:02:12.685Z,5.40
2022-11-15T04:04:39.317Z,5.40
2022-11-15T04:07:06.228Z,6.10
2022-11-15T04:09:32.862Z,5.40
2022-11-15T04:11:59.514Z,5.40
2022-11-15T04:14:26.094Z,6.00
2022-11-15T04:16:52.701Z,5.40
2022-11-15T04:19:38.130Z,6.80
2022-11-15T04:22:23.582Z,5.40
2022-11-15T04:24:50.214Z,5.30
2022-11-15T04:27:16.854Z,5.40
2022-11-15T04:29:43.521Z,5.40
2022-11-15T04:32:10.288Z,5.50
2022-11-15T04:34:37.404Z,5.60
2022-11-15T04:37:13.158Z,5.70
2022-11-15T04:39:40.593Z,5.70
2022-11-15T04:42:07.563Z,5.70
2022-11-15T04:44:34.186Z,6.60
2022-11-15T04:47:00.849Z,5.80
2022-11-15T04:49:27.520Z,5.80
2022-11-15T04:51:54.365Z,5.70
2022-11-15T04:54:21.002Z,5.60
2022-11-15T04:56:47.648Z,5.60
2022-11-15T04:59:14.259Z,5.60
2022-11-15T05:01:44.896Z,6.80
2022-11-15T05:04:21.052Z,5.50
2022-11-15T05:06:52.234Z,5.50
2022-11-15T05:09:19.844Z,5.50
2022-11-15T05:11:46.940Z,6.60
2022-11-15T05:14:13.690Z,5.50
2022-11-15T05:16:40.410Z,6.30
2022-11-15T05:19:07.309Z,6.90
2022-11-15T05:21:34.406Z,5.70
2022-11-15T05:24:01.082Z,5.80
2022-11-15T05:26:28.081Z,5.90
2022-11-15T05:28:55.704Z,5.90
2022-11-15T05:31:22.888Z,5.90
2022-11-15T05:33:50.128Z,6.00
2022-11-15T05:36:22.826Z,5.90
2022-11-15T05:38:49.907Z,5.90
2022-11-15T05:41:18.046Z,7.30
2022-11-15T05:43:44.880Z,7.10
2022-11-15T05:46:11.757Z,5.90
2022-11-15T05:48:40.111Z,6.70
2022-11-15T05:51:07.807Z,7.00
2022-11-15T05:53:35.836Z,5.70
2022-11-15T05:56:03.391Z,5.60
2022-11-15T05:58:31.687Z,5.50
2022-11-15T06:00:58.451Z,5.40
2022-11-15T06:03:25.073Z,5.30
2022-11-15T06:05:51.702Z,5.30
2022-11-15T06:08:18.329Z,5.20
2022-11-15T06:10:44.944Z,6.10
2022-11-15T06:13:11.789Z,5.20
2022-11-15T06:15:38.469Z,5.20
2022-11-15T06:18:05.119Z,5.20
2022-11-15T06:20:31.868Z,5.80
2022-11-15T06:22:59.397Z,5.30
2022-11-15T06:25:26.839Z,5.30
2022-11-15T06:27:54.150Z,5.30
2022-11-15T06:30:21.341Z,5.60
2022-11-15T06:32:47.964Z,5.30
2022-11-15T06:35:14.832Z,4.70
2022-11-15T06:37:42.097Z,5.30
2022-11-15T06:40:09.928Z,5.30
2022-11-15T06:42:38.399Z,5.40
2022-11-15T06:45:06.008Z,5.40
2022-11-15T06:47:32.669Z,5.20
2022-11-15T06:49:59.319Z,5.30
2022-11-15T06:52:25.964Z,5.30
2022-11-15T06:54:52.653Z,5.40
2022-11-15T06:57:19.295Z,7.00
2022-11-15T06:59:45.923Z,5.50
2022-11-15T07:02:13.162Z,5.60
2022-11-15T07:04:39.827Z,5.70
2022-11-15T07:07:06.628Z,7.40
2022-11-15T07:09:33.346Z,5.80
2022-11-15T07:12:04.650Z,5.80
2022-11-15T07:14:34.002Z,5.80
2022-11-15T07:17:00.668Z,5.80
2022-11-15T07:19:27.330Z,5.80
2022-11-15T07:21:54.011Z,6.00
2022-11-15T07:24:20.626Z,6.00
2022-11-15T07:26:47.206Z,6.00
2022-11-15T07:29:14.111Z,7.60
2022-11-15T07:31:40.746Z,7.60
2022-11-15T07:34:07.411Z,6.20
2022-11-15T07:36:34.044Z,6.20
2022-11-15T07:39:00.724Z,6.30
2022-11-15T07:41:27.447Z,6.30
2022-11-15T07:43:54.119Z,7.80
2022-11-15T07:46:20.788Z,6.50
2022-11-15T07:48:47.469Z,6.50
2022-11-15T07:51:15.300Z,6.50
2022-11-15T07:53:42.974Z,6.60
2022-11-15T07:56:10.151Z,6.60
2022-11-15T07:58:36.789Z,6.70
2022-11-15T08:01:04.911Z,6.70
2022-11-15T08:03:31.780Z,8.50
2022-11-15T08:05:58.597Z,6.70
2022-11-15T08:08:25.351Z,6.80
2022-11-15T08:10:52.035Z,6.80
2022-11-15T08:13:18.798Z,7.80
2022-11-15T08:15:45.386Z,7.00
2022-11-15T08:18:15.848Z,7.10
2022-11-15T08:20:42.583Z,7.60
2022-11-15T08:23:10.803Z,7.30
2022-11-15T08:25:37.846Z,7.40
2022-11-15T08:28:05.585Z,7.60
2022-11-15T08:30:35.480Z,7.60
2022-11-15T08:33:02.109Z,9.20
2022-11-15T08:35:29.467Z,7.90
2022-11-15T08:37:56.196Z,8.00
2022-11-15T08:40:23.929Z,9.40
2022-11-15T08:42:50.546Z,9.30
2022-11-15T08:45:17.201Z,8.30
2022-11-15T08:47:43.876Z,8.40
2022-11-15T08:50:10.490Z,8.50
2022-11-15T08:52:37.152Z,8.50
2022-11-15T08:55:03.834Z,8.60
2022-11-15T08:57:33.727Z,8.70
2022-11-15T09:00:00.291Z,8.80
2022-11-15T09:02:26.880Z,8.90
2022-11-15T09:04:53.503Z,8.90
2022-11-15T09:07:20.287Z,9.80
2022-11-15T09:09:46.905Z,9.80
2022-11-15T09:12:13.751Z,10.10
2022-11-15T09:14:40.593Z,9.20
2022-11-15T09:17:10.492Z,9.20
2022-11-15T09:19:37.968Z,11.00
2022-11-15T09:22:06.873Z,9.40
2022-11-15T09:24:33.509Z,9.40
2022-11-15T09:27:00.214Z,9.60
2022-11-15T09:29:26.886Z,10.50
2022-11-15T09:31:53.855Z,10.10
2022-11-15T09:34:21.931Z,9.90
2022-11-15T09:36:48.557Z,11.20
2022-11-15T09:39:15.174Z,10.00
2022-11-15T09:41:44.906Z,10.20
2022-11-15T09:44:25.552Z,10.20
2022-11-15T09:47:00.347Z,10.20
2022-11-15T09:49:27.125Z,10.30
2022-11-15T09:51:54.964Z,11.40
2022-11-15T09:54:52.631Z,11.30
2022-11-15T09:57:30.033Z,10.40
2022-11-15T10:00:23.891Z,10.40
2022-11-15T10:02:59.425Z,10.50
2022-11-15T10:05:27.089Z,10.50
2022-11-15T10:07:57.077Z,10.80
2022-11-15T10:10:30.347Z,10.60
2022-11-15T10:12:57.086Z,10.60
2022-11-15T10:15:23.931Z,11.40
2022-11-15T10:18:04.680Z,10.70
2022-11-15T10:20:36.917Z,10.70
2022-11-15T10:23:07.254Z,11.30
2022-11-15T10:25:35.324Z,10.90
2022-11-15T10:28:07.218Z,11.00
2022-11-15T10:30:38.692Z,12.60
2022-11-15T10:33:32.039Z,11.10
2022-11-15T10:36:11.109Z,11.10
2022-11-15T10:38:50.197Z,11.10
2022-11-15T10:41:16.837Z,11.10
2022-11-15T10:43:43.596Z,11.20
2022-11-15T10:46:45.161Z,11.10
2022-11-15T10:49:22.688Z,11.10
2022-11-15T10:51:54.442Z,11.20
2022-11-15T10:54:25.902Z,11.10
2022-11-15T10:56:54.199Z,11.10
2022-11-15T10:59:28.345Z,11.20
2022-11-15T11:01:55.164Z,11.20
2022-11-15T11:04:21.995Z,11.30
2022-11-15T11:06:53.197Z,11.10
2022-11-15T11:09:22.841Z,11.10
2022-11-15T11:11:50.411Z,11.10
2022-11-15T11:14:25.471Z,11.20
2022-11-15T11:16:55.126Z,11.10
2022-11-15T11:19:47.477Z,11.20
2022-11-15T11:22:17.145Z,11.20
2022-11-15T11:24:43.818Z,11.30
2022-11-15T11:27:29.164Z,11.20
2022-11-15T11:30:04.943Z,11.20
2022-11-15T11:32:54.991Z,11.20
2022-11-15T11:35:31.741Z,11.30
2022-11-15T11:38:17.434Z,11.30
2022-11-15T11:40:50.122Z,11.30
2022-11-15T11:43:35.045Z,11.30
2022-11-15T11:46:18.433Z,11.30
2022-11-15T11:48:59.510Z,11.40
2022-11-15T11:51:33.841Z,11.50
2022-11-15T11:54:04.718Z,11.50
2022-11-15T11:56:35.892Z,11.60
2022-11-15T11:59:13.484Z,11.60
2022-11-15T12:01:44.624Z,11.50
2022-11-15T12:04:20.137Z,11.50
2022-11-15T12:06:49.890Z,11.50
2022-11-15T12:09:20.113Z,11.50
2022-11-15T12:11:57.151Z,11.60
2022-11-15T12:14:42.558Z,11.50
2022-11-15T12:17:10.865Z,11.50
2022-11-15T12:19:37.718Z,11.60
2022-11-15T12:22:17.691Z,12.60
2022-11-15T12:24:47.551Z,11.60
2022-11-15T12:27:24.916Z,11.90
2022-11-15T12:29:55.487Z,11.60
2022-11-15T12:32:25.242Z,11.60
2022-11-15T12:34:52.227Z,11.70
2022-11-15T12:37:38.688Z,12.50
2022-11-15T12:40:08.243Z,11.80
2022-11-15T12:42:58.181Z,11.80
2022-11-15T12:45:26.429Z,11.80
2022-11-15T12:47:53.047Z,11.90
2022-11-15T12:50:39.653Z,12.80
2022-11-15T12:53:28.496Z,11.90
2022-11-15T12:56:04.443Z,11.90
2022-11-15T12:58:44.074Z,12.00
2022-11-15T13:01:11.274Z,12.00
2022-11-15T13:03:57.888Z,12.00
2022-11-15T13:06:44.475Z,12.00
2022-11-15T13:09:29.977Z,12.00
2022-11-15T13:11:57.186Z,12.00
2022-11-15T13:14:36.131Z,12.00
2022-11-15T13:17:03.230Z,12.10
2022-11-15T13:19:29.953Z,11.90
2022-11-15T13:22:15.293Z,11.90
2022-11-15T13:24:41.942Z,11.90
2022-11-15T13:27:19.994Z,11.90
2022-11-15T13:29:46.656Z,11.80
2022-11-15T13:32:14.396Z,11.90
2022-11-15T13:34:51.444Z,12.60
2022-11-15T13:37:21.820Z,12.50
2022-11-15T13:39:49.403Z,11.70
2022-11-15T13:42:17.185Z,11.70
2022-11-15T13:44:57.354Z,11.60
2022-11-15T13:47:27.779Z,11.60
2022-11-15T13:49:54.551Z,12.40
2022-11-15T13:52:21.875Z,11.80
2022-11-15T13:54:54.555Z,11.60
2022-11-15T13:57:25.544Z,11.60
2022-11-15T13:59:53.838Z,11.60
2022-11-15T14:02:23.479Z,11.60
2022-11-15T14:04:54.728Z,11.60
2022-11-15T14:07:23.355Z,12.90
2022-11-15T14:09:50.254Z,11.70
2022-11-15T14:12:26.004Z,11.70
2022-11-15T14:14:53.016Z,11.70
2022-11-15T14:17:21.618Z,11.80
2022-11-15T14:19:48.310Z,11.70
2022-11-15T14:22:21.490Z,11.70
2022-11-15T14:25:06.471Z,11.70
2022-11-15T14:27:33.415Z,12.70
2022-11-15T14:30:00.575Z,11.70
2022-11-15T14:32:28.996Z,11.60
2022-11-15T14:34:59.708Z,11.60
2022-11-15T14:37:32.450Z,13.00
2022-11-15T14:39:59.097Z,11.50
2022-11-15T14:42:26.100Z,11.60
2022-11-15T14:44:52.991Z,11.40
2022-11-15T14:47:19.761Z,11.30
2022-11-15T14:49:46.400Z,12.00
2022-11-15T14:52:31.545Z,11.30
2022-11-15T14:55:00.312Z,11.30
2022-11-15T14:57:27.070Z,11.30
2022-11-15T14:59:53.935Z,11.30
2022-11-15T15:02:22.370Z,11.30
2022-11-15T15:04:49.658Z,11.20
2022-11-15T15:07:16.816Z,11.10
2022-11-15T15:09:43.846Z,11.10
2022-11-15T15:12:23.934Z,11.60
2022-11-15T15:14:51.160Z,11.00
2022-11-15T15:17:18.033Z,11.00
2022-11-15T15:19:44.736Z,10.90
2022-11-15T15:22:18.201Z,11.80
2022-11-15T15:24:45.384Z,10.80
2022-11-15T15:27:12.533Z,11.40
2022-11-15T15:29:39.315Z,10.70
2022-11-15T15:32:06.385Z,10.70
2022-11-15T15:34:33.546Z,10.60
2022-11-15T15:37:10.052Z,10.60
2022-11-15T15:39:36.758Z,10.60
2022-11-15T15:42:04.862Z,11.60
2022-11-15T15:44:31.433Z,10.50
2022-11-15T15:46:58.848Z,11.80
2022-11-15T15:49:25.546Z,10.40
2022-11-15T15:51:52.206Z,10.40
2022-11-15T15:54:18.832Z,10.30
2022-11-15T15:56:45.444Z,10.30
2022-11-15T15:59:12.040Z,11.00
2022-11-15T16:01:38.698Z,10.20
2022-11-15T16:04:05.352Z,10.20
2022-11-15T16:06:35.315Z,11.30
2022-11-15T16:09:15.130Z,10.20
2022-11-15T16:11:43.286Z,11.40
2022-11-15T16:14:09.960Z,11.00
2022-11-15T16:16:36.928Z,10.80
2022-11-15T16:19:04.332Z,10.20
2022-11-15T16:21:30.991Z,11.80
2022-11-15T16:23:57.665Z,10.10
2022-11-15T16:26:29.364Z,11.00
2022-11-15T16:28:56.011Z,10.00
2022-11-15T16:31:22.632Z,11.40
2022-11-15T16:33:49.406Z,10.00
2022-11-15T16:36:23.429Z,10.60
2022-11-15T16:38:53.813Z,9.90
2022-11-15T16:41:20.469Z,9.90
2022-11-15T16:43:47.132Z,10.10
2022-11-15T16:46:32.263Z,9.90
2022-11-15T16:48:59.286Z,9.90
2022-11-15T16:51:25.970Z,10.70
2022-11-15T16:53:52.673Z,10.30
2022-11-15T16:56:22.609Z,10.90
2022-11-15T16:58:49.381Z,9.80
2022-11-15T17:01:17.726Z,9.80
2022-11-15T17:03:44.411Z,9.70
2022-11-15T17:06:12.718Z,9.80
2022-11-15T17:08:39.346Z,11.00
2022-11-15T17:11:06.808Z,9.70
2022-11-15T17:13:36.435Z,9.70
2022-11-15T17:16:07.242Z,9.70
2022-11-15T17:18:34.829Z,9.60
2022-11-15T17:21:05.464Z,9.60
2022-11-15T17:23:32.757Z,9.60
2022-11-15T17:26:17.595Z,9.60
2022-11-15T17:28:47.450Z,11.00
2022-11-15T17:31:14.620Z,9.60
2022-11-15T17:33:41.538Z,11.30
2022-11-15T17:36:10.375Z,9.60
2022-11-15T17:38:37.004Z,9.60
2022-11-15T17:41:05.363Z,10.60
2022-11-15T17:43:32.926Z,9.60
2022-11-15T17:46:00.183Z,10.50
2022-11-15T17:48:26.837Z,11.20
2022-11-15T17:51:00.500Z,9.50
2022-11-15T17:53:27.717Z,9.50
2022-11-15T17:55:54.359Z,9.50
2022-11-15T17:58:20.954Z,9.50
2022-11-15T18:00:47.988Z,9.50
2022-11-15T18:03:14.725Z,9.60
2022-11-15T18:05:43.764Z,9.50
2022-11-15T18:08:15.414Z,9.50
2022-11-15T18:10:42.230Z,9.60
2022-11-15T18:13:10.153Z,10.40
2022-11-15T18:15:36.801Z,9.50
2022-11-15T18:18:03.455Z,10.10
2022-11-15T18:20:30.089Z,9.50
2022-11-15T18:22:56.805Z,9.90
2022-11-15T18:25:23.435Z,9.50
2022-11-15T18:27:55.129Z,9.60
2022-11-15T18:30:21.739Z,10.40
2022-11-15T18:32:48.410Z,9.60
2022-11-15T18:35:15.071Z,10.50
2022-11-15T18:37:41.661Z,9.50
2022-11-15T18:40:08.752Z,10.60
2022-11-15T18:42:35.341Z,9.60
2022-11-15T18:45:02.922Z,10.40
2022-11-15T18:47:31.615Z,9.50
2022-11-15T18:49:59.784Z,9.60
2022-11-15T18:52:26.457Z,10.20
2022-11-15T18:54:53.072Z,10.10
2022-11-15T18:57:19.660Z,9.90
2022-11-15T18:59:46.407Z,11.40
2022-11-15T19:02:13.142Z,9.50
2022-11-15T19:04:39.755Z,10.80
2022-11-15T19:07:06.385Z,9.50
2022-11-15T19:09:33.463Z,10.50
2022-11-15T19:12:00.056Z,9.40
2022-11-15T19:14:27.686Z,9.90
2022-11-15T19:16:54.980Z,10.50
2022-11-15T19:19:22.952Z,9.30
2022-11-15T19:21:49.637Z,10.80
2022-11-15T19:24:16.541Z,9.30
2022-11-15T19:26:44.618Z,9.80
2022-11-15T19:29:11.517Z,9.30
2022-11-15T19:31:38.481Z,9.30
2022-11-15T19:34:05.808Z,10.90
2022-11-15T19:36:36.969Z,9.30
2022-11-15T19:39:08.011Z,9.30
2022-11-15T19:41:35.346Z,9.30
2022-11-15T19:44:02.132Z,9.30
2022-11-15T19:46:28.818Z,9.30
2022-11-15T19:48:55.432Z,9.20
2022-11-15T19:51:23.191Z,10.40
2022-11-15T19:53:53.423Z,9.10
2022-11-15T19:56:20.501Z,9.10
2022-11-15T19:58:49.905Z,9.40
2022-11-15T20:01:18.171Z,10.50
2022-11-15T20:03:45.224Z,9.40
2022-11-15T20:06:13.431Z,10.00
2022-11-15T20:08:40.099Z,9.10
2022-11-15T20:11:06.732Z,9.10
2022-11-15T20:13:33.408Z,10.40
2022-11-15T20:16:00.630Z,9.10
2022-11-15T20:18:28.269Z,9.60
2022-11-15T20:20:56.540Z,10.50
2022-11-15T20:23:23.331Z,10.20
2022-11-15T20:25:50.356Z,9.20
2022-11-15T20:28:18.372Z,10.00
2022-11-15T20:30:45.756Z,9.20
2022-11-15T20:33:12.825Z,9.10
2022-11-15T20:35:39.666Z,10.50
2022-11-15T20:38:06.831Z,9.10
2022-11-15T20:40:33.443Z,9.90
2022-11-15T20:43:00.148Z,9.10
2022-11-15T20:45:26.738Z,9.10
2022-11-15T20:47:57.338Z,9.20
2022-11-15T20:50:41.782Z,9.10
2022-11-15T20:53:09.508Z,10.30
2022-11-15T20:55:40.882Z,9.10
2022-11-15T20:58:07.885Z,9.00
2022-11-15T21:00:34.755Z,8.90
2022-11-15T21:03:01.351Z,8.90
2022-11-15T21:05:28.624Z,8.90
2022-11-15T21:07:55.257Z,10.60
2022-11-15T21:10:40.360Z,10.20
2022-11-15T21:13:06.946Z,8.90
2022-11-15T21:15:33.873Z,8.90
2022-11-15T21:18:00.434Z,8.90
2022-11-15T21:20:27.669Z,10.20
2022-11-15T21:22:54.231Z,9.80
2022-11-15T21:25:20.834Z,9.00
2022-11-15T21:27:47.392Z,9.40
2022-11-15T21:30:14.060Z,10.10
2022-11-15T21:32:40.695Z,9.00
2022-11-15T21:35:07.461Z,10.00
2022-11-15T21:37:34.026Z,9.00
2022-11-15T21:40:00.783Z,9.00
2022-11-15T21:42:27.374Z,9.00
2022-11-15T21:44:53.987Z,9.10
2022-11-15T21:47:20.616Z,9.10
2022-11-15T21:49:47.231Z,9.70
2022-11-15T21:52:13.881Z,9.10
2022-11-15T21:54:41.478Z,9.10
2022-11-15T21:57:08.119Z,9.10
2022-11-15T21:59:34.797Z,9.10
2022-11-15T22:02:16.604Z,10.50
2022-11-15T22:04:43.194Z,9.10
2022-11-15T22:07:09.837Z,10.20
2022-11-15T22:09:36.684Z,10.50
2022-11-15T22:12:03.389Z,9.20
2022-11-15T22:14:29.976Z,9.00
2022-11-15T22:16:56.570Z,9.00
2022-11-15T22:19:23.198Z,9.10
2022-11-15T22:21:49.878Z,9.00
2022-11-15T22:24:16.639Z,9.40
2022-11-15T22:26:43.223Z,9.00
2022-11-15T22:29:09.818Z,9.30
2022-11-15T22:31:36.606Z,10.00
2022-11-15T22:34:03.379Z,9.00
2022-11-15T22:36:42.404Z,9.40
2022-11-15T22:39:13.822Z,10.60
2022-11-15T22:41:40.464Z,8.90
2022-11-15T22:44:07.163Z,9.50
2022-11-15T22:46:33.859Z,10.00
2022-11-15T22:49:03.300Z,10.50
2022-11-15T22:51:30.248Z,10.90
2022-11-15T22:53:56.954Z,10.60
2022-11-15T22:56:23.607Z,10.10
2022-11-15T22:58:50.228Z,9.80
2022-11-15T23:01:21.878Z,8.80
2022-11-15T23:03:48.535Z,8.80
2022-11-15T23:06:15.159Z,8.80
2022-11-15T23:08:42.266Z,8.80
2022-11-15T23:11:28.678Z,8.80
2022-11-15T23:13:55.644Z,8.80
2022-11-15T23:16:22.681Z,8.80
2022-11-15T23:18:59.444Z,10.50
2022-11-15T23:21:45.732Z,8.80
2022-11-15T23:24:13.262Z,8.90
2022-11-15T23:26:40.525Z,8.80
2022-11-15T23:29:08.053Z,8.80
2022-11-15T23:32:01.155Z,8.80
2022-11-15T23:34:28.643Z,8.80
2022-11-15T23:36:55.309Z,8.80
2022-11-15T23:39:22.024Z,8.70
2022-11-15T23:41:48.675Z,8.80
2022-11-15T23:44:15.527Z,8.80
2022-11-15T23:46:42.179Z,8.80
2022-11-15T23:49:08.872Z,9.20
2022-11-15T23:51:35.659Z,9.30
2022-11-15T23:54:02.272Z,10.10
2022-11-15T23:56:28.930Z,10.20
2022-11-15T23:58:55.571Z,9.80
